Time;durP1;ratioP1;P1;durP2;ratioP2;P2;SDS_P1;SDS_P2;PMS_P1;PMS_P2;Temp;Humidity;BMP_temperature;BMP_pressure;BME280_temperature;BME280_humidity;BME280_pressure;Samples;Min_cycle;Max_cycle;Signal;HPM_P1;HPM_P2
2021/09/18 00:01:03;;;;;;;;;;;21.10;99.90;;;;;;5052605;28;19924;-54
2021/09/18 00:04:08;;;;;;;;;;;21.10;99.90;;;;;;5052000;28;19923;-54
2021/09/18 00:07:12;;;;;;;;;;;21.10;99.90;;;;;;5051686;28;19936;-53
2021/09/18 00:10:15;;;;;;;;;;;21.20;99.90;;;;;;5053145;28;19920;-54
2021/09/18 00:13:20;;;;;;;;;;;21.20;99.90;;;;;;5052229;28;19920;-53
2021/09/18 00:16:24;;;;;;;;;;;21.30;99.90;;;;;;5051550;28;19947;-53
2021/09/18 00:19:28;;;;;;;;;;;21.30;99.90;;;;;;5044438;28;19935;-55
2021/09/18 00:22:32;;;;;;;;;;;21.20;99.90;;;;;;5050387;28;19924;-57
2021/09/18 00:25:36;;;;;;;;;;;21.30;99.90;;;;;;5044948;28;19917;-57
2021/09/18 00:28:40;;;;;;;;;;;21.30;99.90;;;;;;5051755;28;19935;-53
2021/09/18 00:31:44;;;;;;;;;;;21.30;99.90;;;;;;5051790;28;19920;-52
2021/09/18 00:34:49;;;;;;;;;;;21.30;99.90;;;;;;5051299;28;19924;-53
2021/09/18 00:37:53;;;;;;;;;;;21.40;99.90;;;;;;5051121;28;19920;-53
2021/09/18 00:40:57;;;;;;;;;;;21.30;99.90;;;;;;5052027;28;19924;-52
2021/09/18 00:44:01;;;;;;;;;;;21.30;99.90;;;;;;5050709;28;19924;-52
2021/09/18 00:47:05;;;;;;;;;;;21.20;99.90;;;;;;5051310;28;19924;-52
2021/09/18 00:50:09;;;;;;;;;;;21.20;99.90;;;;;;5052243;28;20381;-53
2021/09/18 00:53:13;;;;;;;;;;;21.20;99.90;;;;;;5051044;28;19923;-52
2021/09/18 00:56:17;;;;;;;;;;;21.10;99.90;;;;;;5050750;28;19919;-52
2021/09/18 00:59:21;;;;;;;;;;;21.10;99.90;;;;;;5051845;28;19919;-52
2021/09/18 01:02:25;;;;;;;;;;;21.00;99.90;;;;;;5050741;28;19929;-52
2021/09/18 01:05:32;;;;;;;;;;;20.90;99.90;;;;;;5050465;28;19917;-51
2021/09/18 01:08:37;;;;;;;;;;;20.80;99.90;;;;;;5051209;28;19940;-52
2021/09/18 01:11:41;;;;;;;;;;;20.80;99.90;;;;;;5050644;28;19920;-52
2021/09/18 01:14:46;;;;;;;;;;;20.80;99.90;;;;;;5050087;28;19920;-52
2021/09/18 01:17:50;;;;;;;;;;;20.90;99.90;;;;;;5050951;28;20326;-52
2021/09/18 01:20:54;;;;;;;;;;;20.80;99.90;;;;;;5050937;28;19924;-52
2021/09/18 01:23:58;;;;;;;;;;;20.80;99.90;;;;;;5049788;28;19919;-52
2021/09/18 01:27:02;;;;;;;;;;;20.80;99.90;;;;;;5050481;28;19920;-53
2021/09/18 01:30:06;;;;;;;;;;;20.80;99.90;;;;;;5050225;28;20304;-54
2021/09/18 01:33:10;;;;;;;;;;;20.80;99.90;;;;;;5049717;28;19920;-53
2021/09/18 01:36:14;;;;;;;;;;;20.80;99.90;;;;;;5049790;28;19944;-52
2021/09/18 01:39:21;;;;;;;;;;;20.70;99.90;;;;;;5050587;28;20203;-54
2021/09/18 01:42:24;;;;;;;;;;;20.70;99.90;;;;;;5049000;28;19927;-57
2021/09/18 01:45:31;;;;;;;;;;;20.60;99.90;;;;;;5049735;28;19944;-52
2021/09/18 01:48:36;;;;;;;;;;;20.60;99.90;;;;;;5050789;28;19920;-50
2021/09/18 01:51:42;;;;;;;;;;;20.50;99.90;;;;;;5049800;28;20291;-53
2021/09/18 01:54:46;;;;;;;;;;;20.40;99.90;;;;;;5049411;28;20430;-54
2021/09/18 01:57:52;;;;;;;;;;;20.40;99.90;;;;;;5050474;28;20390;-53
2021/09/18 02:01:00;;;;;;;;;;;20.40;99.90;;;;;;5049461;28;20326;-52
2021/09/18 02:04:04;;;;;;;;;;;20.40;99.90;;;;;;5048758;28;20403;-52
2021/09/18 02:07:08;;;;;;;;;;;20.30;99.90;;;;;;5049723;28;19920;-52
2021/09/18 02:10:13;;;;;;;;;;;20.30;99.90;;;;;;5050422;28;19987;-53
2021/09/18 02:13:18;;;;;;;;;;;20.30;99.90;;;;;;5048901;28;19939;-53
2021/09/18 02:16:22;;;;;;;;;;;20.30;99.90;;;;;;5049967;28;19935;-53
2021/09/18 02:19:25;;;;;;;;;;;20.30;99.90;;;;;;5049174;28;19912;-53
2021/09/18 02:22:29;;;;;;;;;;;20.30;99.90;;;;;;5048446;28;20391;-54
2021/09/18 02:25:34;;;;;;;;;;;20.30;99.90;;;;;;5048914;28;19924;-52
2021/09/18 02:28:38;;;;;;;;;;;20.30;99.90;;;;;;5049629;28;20323;-52
2021/09/18 02:31:42;;;;;;;;;;;20.30;99.90;;;;;;5048568;28;19928;-53
2021/09/18 02:34:46;;;;;;;;;;;20.40;99.90;;;;;;5048332;28;19913;-56
2021/09/18 02:37:52;;;;;;;;;;;20.40;99.90;;;;;;5048770;28;19920;-54
2021/09/18 02:40:56;;;;;;;;;;;20.50;99.90;;;;;;5049054;28;19923;-52
2021/09/18 02:44:01;;;;;;;;;;;20.50;99.90;;;;;;5048291;28;19923;-52
2021/09/18 02:47:05;;;;;;;;;;;20.60;99.90;;;;;;5049701;28;19992;-53
2021/09/18 02:50:10;;;;;;;;;;;20.60;99.90;;;;;;5048859;28;19920;-52
2021/09/18 02:53:13;;;;;;;;;;;20.60;99.90;;;;;;5047917;28;19924;-56
2021/09/18 02:56:18;;;;;;;;;;;20.60;99.90;;;;;;5049246;28;19924;-54
2021/09/18 02:59:22;;;;;;;;;;;20.60;99.90;;;;;;5049456;28;20405;-55
2021/09/18 03:02:27;;;;;;;;;;;20.70;99.90;;;;;;5048002;28;20298;-52
2021/09/18 03:05:31;;;;;;;;;;;20.70;99.90;;;;;;5049317;28;20402;-54
2021/09/18 03:08:35;;;;;;;;;;;20.70;99.90;;;;;;5049970;28;19913;-52
2021/09/18 03:11:39;;;;;;;;;;;20.70;99.90;;;;;;5048353;28;20303;-53
2021/09/18 03:14:43;;;;;;;;;;;20.70;99.90;;;;;;5048519;28;19920;-57
2021/09/18 03:17:47;;;;;;;;;;;20.70;99.90;;;;;;5049007;28;19920;-56
2021/09/18 03:20:50;;;;;;;;;;;20.80;99.90;;;;;;5048231;28;19924;-52
2021/09/18 03:23:55;;;;;;;;;;;20.70;99.90;;;;;;5048413;28;20026;-53
2021/09/18 03:26:59;;;;;;;;;;;20.70;99.90;;;;;;5049594;28;20870;-53
2021/09/18 03:30:03;;;;;;;;;;;20.70;99.90;;;;;;5049016;28;19913;-53
2021/09/18 03:33:08;;;;;;;;;;;20.20;99.90;;;;;;5048291;28;20286;-55
2021/09/18 03:36:12;;;;;;;;;;;20.20;99.90;;;;;;5049623;28;20405;-53
2021/09/18 03:39:16;;;;;;;;;;;20.10;99.90;;;;;;5048867;28;19939;-55
2021/09/18 03:42:20;;;;;;;;;;;20.10;99.90;;;;;;5048097;28;20299;-54
2021/09/18 03:45:24;;;;;;;;;;;20.10;99.90;;;;;;5049520;28;20386;-52
2021/09/18 03:48:28;;;;;;;;;;;19.70;99.90;;;;;;5049506;28;19913;-52
2021/09/18 03:51:32;;;;;;;;;;;19.60;99.90;;;;;;5047963;28;19920;-57
2021/09/18 03:54:36;;;;;;;;;;;19.60;99.90;;;;;;5048496;28;20311;-52
2021/09/18 03:57:40;;;;;;;;;;;19.70;99.90;;;;;;5049131;28;19944;-52
2021/09/18 04:00:44;;;;;;;;;;;19.80;99.90;;;;;;5048877;28;19924;-52
2021/09/18 04:03:48;;;;;;;;;;;20.00;99.90;;;;;;5051300;28;20307;-52
2021/09/18 04:06:52;;;;;;;;;;;20.10;99.90;;;;;;5052984;28;19924;-56
2021/09/18 04:09:57;;;;;;;;;;;20.20;99.90;;;;;;5051233;28;19936;-53
2021/09/18 04:13:01;;;;;;;;;;;20.10;99.90;;;;;;5050478;28;19924;-53
2021/09/18 04:16:06;;;;;;;;;;;20.20;99.90;;;;;;5052642;28;20322;-52
2021/09/18 04:19:10;;;;;;;;;;;20.30;99.90;;;;;;5051273;28;20386;-53
2021/09/18 04:22:13;;;;;;;;;;;20.30;99.90;;;;;;5050859;28;20441;-53
2021/09/18 04:25:18;;;;;;;;;;;20.30;99.90;;;;;;5052203;28;20291;-57
2021/09/18 04:28:21;;;;;;;;;;;20.40;99.90;;;;;;5051503;28;20314;-52
2021/09/18 04:31:26;;;;;;;;;;;20.40;99.90;;;;;;5050679;28;20406;-52
2021/09/18 04:34:29;;;;;;;;;;;20.40;99.90;;;;;;5051733;28;19999;-53
2021/09/18 04:37:34;;;;;;;;;;;20.50;99.90;;;;;;5051391;28;19932;-52
2021/09/18 04:40:38;;;;;;;;;;;20.50;99.90;;;;;;5050809;28;19920;-52
2021/09/18 04:43:43;;;;;;;;;;;20.50;99.90;;;;;;5051983;28;19923;-52
2021/09/18 04:46:48;;;;;;;;;;;20.50;99.90;;;;;;5032100;28;19920;-53
2021/09/18 04:49:52;;;;;;;;;;;20.50;99.90;;;;;;5044408;28;19917;-56
2021/09/18 04:52:56;;;;;;;;;;;20.20;99.90;;;;;;5051505;28;19920;-52
2021/09/18 04:56:00;;;;;;;;;;;19.90;99.90;;;;;;5051559;28;19920;-52
2021/09/18 04:59:04;;;;;;;;;;;19.80;99.90;;;;;;5050366;28;20371;-52
2021/09/18 05:02:08;;;;;;;;;;;19.70;99.90;;;;;;5050794;28;19928;-52
2021/09/18 05:05:12;;;;;;;;;;;19.60;99.90;;;;;;5051168;28;19951;-52
2021/09/18 05:08:17;;;;;;;;;;;19.00;99.90;;;;;;5050015;28;19955;-52
2021/09/18 05:11:21;;;;;;;;;;;18.90;99.90;;;;;;5050024;28;19920;-53
2021/09/18 05:14:25;;;;;;;;;;;18.90;99.90;;;;;;5051055;28;19920;-52
2021/09/18 05:17:29;;;;;;;;;;;19.00;99.90;;;;;;5049233;28;20405;-52
2021/09/18 05:20:34;;;;;;;;;;;19.00;99.90;;;;;;5049742;28;19920;-54
2021/09/18 05:23:38;;;;;;;;;;;19.00;99.90;;;;;;5051254;28;19940;-53
2021/09/18 05:26:42;;;;;;;;;;;19.00;99.90;;;;;;5050100;28;19923;-53
2021/09/18 05:29:45;;;;;;;;;;;19.10;99.90;;;;;;5040128;28;19931;-56
2021/09/18 05:32:50;;;;;;;;;;;19.30;99.90;;;;;;5051026;28;19928;-56
2021/09/18 05:35:53;;;;;;;;;;;19.40;99.90;;;;;;5049775;28;19919;-52
2021/09/18 05:38:57;;;;;;;;;;;19.10;99.90;;;;;;5049764;28;19920;-52
2021/09/18 05:42:01;;;;;;;;;;;19.00;99.90;;;;;;5050134;28;19917;-56
2021/09/18 05:45:06;;;;;;;;;;;18.80;99.90;;;;;;5050559;28;19913;-52
2021/09/18 05:48:10;;;;;;;;;;;18.90;99.90;;;;;;5048692;28;19936;-53
2021/09/18 05:51:14;;;;;;;;;;;19.10;99.90;;;;;;5050208;28;19940;-55
2021/09/18 05:54:18;;;;;;;;;;;19.30;99.90;;;;;;5050927;28;20027;-54
2021/09/18 05:57:23;;;;;;;;;;;19.30;99.90;;;;;;5049290;28;19919;-55
2021/09/18 06:00:27;;;;;;;;;;;19.40;99.90;;;;;;5049477;28;20006;-57
2021/09/18 06:03:31;;;;;;;;;;;19.50;99.90;;;;;;5056887;22;19936;-71
2021/09/18 06:06:35;;;;;;;;;;;19.60;99.90;;;;;;5049407;28;20386;-70
2021/09/18 06:09:39;;;;;;;;;;;19.70;99.90;;;;;;5049626;28;19924;-70
2021/09/18 06:12:44;;;;;;;;;;;20.00;99.90;;;;;;5049391;28;19924;-71
2021/09/18 06:15:49;;;;;;;;;;;20.20;99.90;;;;;;5045773;28;19913;-71
2021/09/18 06:18:53;;;;;;;;;;;20.40;99.90;;;;;;5048551;28;19916;-71
2021/09/18 06:21:57;;;;;;;;;;;20.80;99.90;;;;;;5049718;28;19932;-71
2021/09/18 06:25:02;;;;;;;;;;;21.20;99.90;;;;;;5047814;28;19924;-71
2021/09/18 06:28:06;;;;;;;;;;;21.00;99.90;;;;;;5049341;28;19913;-71
2021/09/18 06:31:10;;;;;;;;;;;21.10;99.90;;;;;;5050228;28;19924;-71
2021/09/18 06:34:14;;;;;;;;;;;21.00;99.90;;;;;;5029840;28;20375;-72
2021/09/18 06:37:18;;;;;;;;;;;20.60;99.90;;;;;;5042402;28;19919;-71
2021/09/18 06:40:22;;;;;;;;;;;20.40;99.90;;;;;;5049906;28;20395;-71
2021/09/18 06:43:28;;;;;;;;;;;20.60;99.90;;;;;;5030074;28;19921;-71
2021/09/18 06:46:32;;;;;;;;;;;21.00;99.90;;;;;;5044807;28;19916;-71
2021/09/18 06:49:37;;;;;;;;;;;21.30;99.90;;;;;;5049624;28;19924;-71
2021/09/18 06:52:41;;;;;;;;;;;21.50;99.90;;;;;;5049416;28;20379;-71
2021/09/18 06:55:44;;;;;;;;;;;21.80;99.90;;;;;;5048947;28;20316;-71
2021/09/18 06:58:48;;;;;;;;;;;22.80;99.90;;;;;;5048999;28;19919;-71
2021/09/18 07:01:53;;;;;;;;;;;23.90;99.90;;;;;;5049395;28;20550;-71
2021/09/18 07:05:00;;;;;;;;;;;25.00;99.90;;;;;;5047804;28;19924;-72
2021/09/18 07:08:04;;;;;;;;;;;26.30;99.90;;;;;;5048264;28;19928;-72
2021/09/18 07:11:08;;;;;;;;;;;26.20;99.90;;;;;;5049372;28;19924;-71
2021/09/18 07:14:12;;;;;;;;;;;26.40;99.90;;;;;;5047186;28;19920;-71
2021/09/18 07:17:16;;;;;;;;;;;26.20;99.90;;;;;;5048698;28;20283;-71
2021/09/18 07:20:20;;;;;;;;;;;26.10;99.90;;;;;;5049416;28;19928;-71
2021/09/18 07:23:25;;;;;;;;;;;26.00;99.90;;;;;;5049396;28;19924;-71
2021/09/18 07:26:28;;;;;;;;;;;26.20;99.90;;;;;;5048385;28;20523;-72
2021/09/18 07:29:34;;;;;;;;;;;25.90;99.90;;;;;;5029924;28;19920;-72
2021/09/18 07:32:38;;;;;;;;;;;26.30;99.90;;;;;;5049335;28;20271;-71
2021/09/18 07:35:43;;;;;;;;;;;26.70;99.90;;;;;;5048463;28;19935;-72
2021/09/18 07:38:46;;;;;;;;;;;26.20;99.90;;;;;;5052530;28;19923;-72
2021/09/18 07:41:50;;;;;;;;;;;25.60;99.90;;;;;;5052755;28;19924;-72
2021/09/18 07:44:54;;;;;;;;;;;27.50;99.90;;;;;;5052313;28;19924;-72
2021/09/18 07:47:58;;;;;;;;;;;28.60;99.90;;;;;;5051542;28;19940;-72
2021/09/18 07:51:02;;;;;;;;;;;30.60;98.90;;;;;;5052630;28;20379;-72
2021/09/18 07:54:06;;;;;;;;;;;31.40;96.00;;;;;;5052223;28;19928;-72
2021/09/18 07:57:10;;;;;;;;;;;30.50;96.10;;;;;;5051598;28;19923;-72
2021/09/18 08:00:15;;;;;;;;;;;29.60;96.70;;;;;;5053093;28;19920;-72
2021/09/18 08:03:19;;;;;;;;;;;29.30;97.30;;;;;;5052104;28;20450;-72
2021/09/18 08:06:25;;;;;;;;;;;29.50;97.50;;;;;;5052036;28;20397;-72
2021/09/18 08:09:30;;;;;;;;;;;31.70;95.70;;;;;;5052754;28;19936;-72
2021/09/18 08:12:34;;;;;;;;;;;34.90;91.90;;;;;;5050342;28;19924;-73
2021/09/18 08:15:39;;;;;;;;;;;36.80;86.80;;;;;;5051979;28;19935;-72
2021/09/18 08:18:43;;;;;;;;;;;35.90;83.80;;;;;;5052158;28;20287;-72
2021/09/18 08:21:46;;;;;;;;;;;32.30;90.20;;;;;;5032088;28;19943;-72
2021/09/18 08:24:54;;;;;;;;;;;27.80;95.10;;;;;;5044373;28;19920;-72
2021/09/18 08:27:58;;;;;;;;;;;29.00;95.40;;;;;;5051943;28;19920;-72
2021/09/18 08:31:02;;;;;;;;;;;31.40;92.90;;;;;;5051656;28;19936;-72
2021/09/18 08:34:06;;;;;;;;;;;34.20;90.60;;;;;;5051469;28;20275;-73
2021/09/18 08:37:10;;;;;;;;;;;37.10;83.80;;;;;;5051958;28;19936;-71
2021/09/18 08:40:14;;;;;;;;;;;38.10;80.40;;;;;;5032352;28;19920;-73
2021/09/18 08:43:20;;;;;;;;;;;38.70;76.70;;;;;;5048894;28;19928;-72
2021/09/18 08:46:24;;;;;;;;;;;36.50;79.00;;;;;;5050835;28;19920;-72
2021/09/18 08:49:29;;;;;;;;;;;34.70;81.60;;;;;;5051904;28;20268;-72
2021/09/18 08:52:33;;;;;;;;;;;34.50;82.70;;;;;;5050786;28;19924;-72
2021/09/18 08:55:37;;;;;;;;;;;30.90;87.90;;;;;;5051242;28;19988;-71
2021/09/18 08:58:41;;;;;;;;;;;28.50;91.90;;;;;;5051643;28;19920;-71
2021/09/18 09:02:05;;;;;;;;;;;29.60;92.10;;;;;;5048659;28;19932;-72
2021/09/18 09:05:09;;;;;;;;;;;33.70;86.20;;;;;;5051883;28;19923;-74
2021/09/18 09:08:15;;;;;;;;;;;34.10;83.10;;;;;;5051872;28;19935;-74
2021/09/18 09:11:20;;;;;;;;;;;35.20;82.00;;;;;;5031503;28;19928;-74
2021/09/18 09:14:41;;;;;;;;;;;34.80;81.50;;;;;;5046647;28;19936;-74
2021/09/18 09:17:51;;;;;;;;;;;38.00;78.70;;;;;;5050902;28;19923;-74
2021/09/18 09:21:10;;;;;;;;;;;41.50;72.60;;;;;;5050647;28;19928;-74
2021/09/18 09:24:15;;;;;;;;;;;42.90;68.30;;;;;;5049566;28;19940;-74
2021/09/18 09:27:20;;;;;;;;;;;36.50;73.10;;;;;;5050321;28;19924;-73
2021/09/18 09:30:28;;;;;;;;;;;36.60;74.90;;;;;;5051405;28;19920;-73
2021/09/18 09:33:32;;;;;;;;;;;36.40;75.30;;;;;;5031216;28;20636;-73
2021/09/18 09:36:39;;;;;;;;;;;35.10;77.30;;;;;;5043922;28;19920;-73
2021/09/18 09:39:49;;;;;;;;;;;31.00;82.90;;;;;;5050931;28;19920;-73
2021/09/18 09:42:55;;;;;;;;;;;30.30;84.60;;;;;;5050317;28;19924;-72
2021/09/18 09:45:59;;;;;;;;;;;29.40;87.40;;;;;;5050137;28;19923;-73
2021/09/18 09:49:04;;;;;;;;;;;28.80;89.40;;;;;;5049721;28;19920;-73
2021/09/18 09:52:19;;;;;;;;;;;28.60;90.40;;;;;;5050431;28;19920;-73
2021/09/18 09:55:23;;;;;;;;;;;28.10;91.00;;;;;;5046923;28;20307;-73
2021/09/18 09:58:27;;;;;;;;;;;27.80;91.60;;;;;;5048832;28;19920;-74
2021/09/18 10:01:32;;;;;;;;;;;27.90;92.20;;;;;;5050307;28;19924;-73
2021/09/18 10:04:36;;;;;;;;;;;31.60;89.20;;;;;;5050155;28;19931;-71
2021/09/18 10:07:40;;;;;;;;;;;33.50;83.80;;;;;;5050707;28;19920;-71
2021/09/18 10:10:44;;;;;;;;;;;33.40;81.90;;;;;;5050461;28;19991;-70
2021/09/18 10:13:48;;;;;;;;;;;32.20;82.40;;;;;;5030598;28;19920;-71
2021/09/18 10:16:56;;;;;;;;;;;31.00;85.50;;;;;;5042568;28;19967;-71
2021/09/18 10:23:41;;;;;;;;;;;31.20;85.50;;;;;;5050369;28;19921;-71
2021/09/18 10:27:10;;;;;;;;;;;30.80;86.20;;;;;;5047340;28;19913;-70
2021/09/18 10:30:28;;;;;;;;;;;30.70;87.30;;;;;;5041537;28;20287;-72
2021/09/18 10:33:42;;;;;;;;;;;29.90;89.20;;;;;;5050325;28;20224;-71
2021/09/18 10:36:47;;;;;;;;;;;29.10;90.70;;;;;;5030276;28;19917;-73
2021/09/18 10:40:03;;;;;;;;;;;28.40;91.60;;;;;;5047113;28;19919;-71
2021/09/18 10:43:23;;;;;;;;;;;29.80;91.00;;;;;;5049042;28;20382;-72
2021/09/18 10:46:38;;;;;;;;;;;34.20;85.00;;;;;;5050046;28;19919;-71
2021/09/18 10:49:43;;;;;;;;;;;34.60;82.60;;;;;;5029916;28;20375;-70
2021/09/18 10:52:57;;;;;;;;;;;33.90;83.20;;;;;;5042180;28;19923;-71
2021/09/18 10:56:03;;;;;;;;;;;32.40;85.70;;;;;;5107538;27;19969;-48
2021/09/18 10:59:00;;;;;;;;;;;31.50;87.90;;;;;;5107777;27;20462;-47
2021/09/18 11:01:38;;;;;;;;;;;32.00;85.80;;;;;;5106342;27;19989;-49
2021/09/18 11:04:40;;;;;;;;;;;32.30;83.90;;;;;;5004549;28;20006;-48
2021/09/18 11:07:37;;;;;;;;;;;32.00;83.50;;;;;;5107194;27;20398;-48
2021/09/18 11:10:35;;;;;;;;;;;31.60;85.00;;;;;;5106645;27;20371;-47
2021/09/18 11:13:17;;;;;;;;;;;31.10;85.70;;;;;;5004201;28;19998;-47
2021/09/18 11:15:59;;;;;;;;;;;31.10;86.70;;;;;;5065883;28;19945;-48
2021/09/18 11:18:39;;;;;;;;;;;31.30;86.10;;;;;;5106697;27;19951;-47
2021/09/18 11:21:25;;;;;;;;;;;31.50;86.40;;;;;;5127856;27;20401;-45
2021/09/18 11:24:23;;;;;;;;;;;31.40;86.90;;;;;;5106427;27;20463;-49
2021/09/18 11:27:01;;;;;;;;;;;31.10;87.40;;;;;;5107244;27;19951;-49
2021/09/18 11:29:44;;;;;;;;;;;31.00;87.10;;;;;;5127052;27;19943;-47
2021/09/18 11:32:23;;;;;;;;;;;31.50;87.30;;;;;;5106238;27;20005;-47
2021/09/18 11:35:01;;;;;;;;;;;33.10;84.20;;;;;;5107716;27;19943;-50
2021/09/18 11:37:40;;;;;;;;;;;33.90;82.50;;;;;;5107125;27;19940;-50
2021/09/18 11:40:18;;;;;;;;;;;36.20;80.10;;;;;;5128055;27;19996;-52
2021/09/18 11:42:57;;;;;;;;;;;38.90;75.70;;;;;;5127308;27;20023;-51
2021/09/18 11:45:39;;;;;;;;;;;41.70;70.40;;;;;;5127361;27;20008;-51
2021/09/18 11:48:21;;;;;;;;;;;41.70;68.10;;;;;;5067337;28;20395;-49
2021/09/18 11:51:01;;;;;;;;;;;40.40;68.30;;;;;;5065718;28;19956;-48
2021/09/18 11:53:39;;;;;;;;;;;39.20;69.90;;;;;;5108118;27;20003;-48
2021/09/18 11:56:19;;;;;;;;;;;39.00;70.30;;;;;;5107164;27;19996;-46
2021/09/18 11:59:06;;;;;;;;;;;40.20;69.00;;;;;;5107478;27;19944;-48
2021/09/18 12:01:48;;;;;;;;;;;42.10;67.60;;;;;;5107949;27;20482;-47
2021/09/18 12:04:37;;;;;;;;;;;43.60;66.00;;;;;;5112788;22;20021;-53
2021/09/18 12:07:14;;;;;;;;;;;44.40;64.90;;;;;;5128152;27;19972;-51
2021/09/18 12:09:52;;;;;;;;;;;44.30;64.00;;;;;;5127237;27;19944;-55
2021/09/18 12:12:30;;;;;;;;;;;44.30;63.50;;;;;;5127207;27;20004;-52
2021/09/18 12:15:09;;;;;;;;;;;44.50;63.00;;;;;;5107772;27;19944;-53
2021/09/18 12:17:47;;;;;;;;;;;45.00;61.90;;;;;;5106965;27;20021;-53
2021/09/18 12:20:25;;;;;;;;;;;43.70;62.10;;;;;;5128179;27;19996;-59
2021/09/18 12:23:04;;;;;;;;;;;43.50;62.30;;;;;;5107020;27;20001;-56
2021/09/18 12:25:50;;;;;;;;;;;43.10;62.10;;;;;;5086631;27;19989;-61
2021/09/18 12:28:30;;;;;;;;;;;41.10;63.70;;;;;;5107482;27;19955;-53
2021/09/18 12:31:18;;;;;;;;;;;39.20;65.80;;;;;;5105857;27;19951;-55
2021/09/18 12:34:05;;;;;;;;;;;37.30;69.40;;;;;;5107869;27;20424;-54
2021/09/18 12:36:43;;;;;;;;;;;35.60;72.40;;;;;;5107059;27;20024;-54
2021/09/18 12:39:26;;;;;;;;;;;34.00;75.60;;;;;;5003143;28;20393;-52
2021/09/18 12:42:04;;;;;;;;;;;34.40;76.40;;;;;;5003533;28;19937;-53
2021/09/18 12:44:42;;;;;;;;;;;36.10;73.80;;;;;;5127494;27;19969;-53
2021/09/18 12:47:24;;;;;;;;;;;37.60;72.40;;;;;;5107635;27;19947;-53
2021/09/18 12:50:18;;;;;;;;;;;39.00;68.80;;;;;;5127554;27;19965;-55
2021/09/18 12:52:56;;;;;;;;;;;37.50;69.20;;;;;;5003018;28;20673;-58
2021/09/18 12:55:34;;;;;;;;;;;35.90;71.70;;;;;;5148858;27;20458;-52
2021/09/18 12:58:28;;;;;;;;;;;34.90;73.70;;;;;;5002805;28;20006;-51
2021/09/18 13:01:08;;;;;;;;;;;34.00;74.70;;;;;;5106931;27;20419;-52
2021/09/18 13:03:58;;;;;;;;;;;33.90;75.70;;;;;;5003420;28;20452;-51
2021/09/18 13:06:39;;;;;;;;;;;35.50;74.20;;;;;;5106676;27;19968;-56
2021/09/18 13:09:20;;;;;;;;;;;38.00;71.30;;;;;;5004509;28;20409;-53
2021/09/18 13:12:12;;;;;;;;;;;39.60;69.20;;;;;;5065962;28;19956;-53
2021/09/18 13:14:51;;;;;;;;;;;40.50;67.00;;;;;;5117571;27;20782;-51
2021/09/18 13:17:31;;;;;;;;;;;40.80;66.40;;;;;;5100905;27;20004;-55
2021/09/18 13:20:16;;;;;;;;;;;41.10;65.90;;;;;;5100190;27;19955;-52
2021/09/18 13:22:54;;;;;;;;;;;40.10;66.60;;;;;;5117400;27;20254;-53
2021/09/18 13:25:34;;;;;;;;;;;40.10;67.00;;;;;;5097903;27;19948;-53
2021/09/18 13:28:12;;;;;;;;;;;39.90;66.70;;;;;;5106372;27;19951;-55
2021/09/18 13:30:50;;;;;;;;;;;39.20;68.00;;;;;;5127607;27;20479;-52
2021/09/18 13:33:30;;;;;;;;;;;39.50;67.90;;;;;;5127322;27;19973;-55
2021/09/18 13:36:08;;;;;;;;;;;39.90;67.00;;;;;;5108056;27;20263;-53
2021/09/18 13:38:46;;;;;;;;;;;40.00;66.50;;;;;;5001521;28;19953;-55
2021/09/18 13:41:24;;;;;;;;;;;39.20;67.40;;;;;;5126632;27;20003;-55
2021/09/18 13:44:03;;;;;;;;;;;39.40;66.90;;;;;;5002943;28;20263;-55
2021/09/18 13:46:41;;;;;;;;;;;38.90;66.80;;;;;;5123274;27;20367;-56
2021/09/18 13:49:19;;;;;;;;;;;37.30;68.60;;;;;;5118079;27;20362;-55
2021/09/18 13:51:58;;;;;;;;;;;36.00;70.80;;;;;;5121663;27;19965;-53
2021/09/18 13:54:35;;;;;;;;;;;36.10;71.70;;;;;;5003942;28;19979;-53
2021/09/18 13:57:14;;;;;;;;;;;36.90;70.40;;;;;;5066431;28;19948;-53
2021/09/18 13:59:52;;;;;;;;;;;37.60;69.50;;;;;;4995344;28;20059;-54
2021/09/18 14:02:30;;;;;;;;;;;38.10;68.80;;;;;;5127659;27;20410;-52
2021/09/18 14:05:08;;;;;;;;;;;38.30;68.00;;;;;;5106530;27;19989;-52
2021/09/18 14:07:46;;;;;;;;;;;38.00;67.90;;;;;;5107942;27;19955;-55
2021/09/18 14:10:25;;;;;;;;;;;37.40;68.30;;;;;;5065943;28;20130;-53
2021/09/18 14:13:03;;;;;;;;;;;37.50;68.40;;;;;;5127804;27;19963;-56
2021/09/18 14:15:44;;;;;;;;;;;37.50;68.40;;;;;;5107424;27;19996;-54
2021/09/18 14:18:23;;;;;;;;;;;37.30;67.60;;;;;;5119282;27;19951;-53
2021/09/18 14:21:01;;;;;;;;;;;37.40;68.10;;;;;;5107609;27;20226;-53
2021/09/18 14:23:39;;;;;;;;;;;37.10;68.30;;;;;;5002928;28;20018;-55
2021/09/18 14:26:17;;;;;;;;;;;36.90;69.20;;;;;;5116068;27;20019;-55
2021/09/18 14:28:56;;;;;;;;;;;36.40;69.40;;;;;;5097773;27;20416;-54
2021/09/18 14:31:33;;;;;;;;;;;35.80;69.70;;;;;;5003271;28;20376;-54
2021/09/18 14:34:12;;;;;;;;;;;35.70;70.00;;;;;;5101986;27;20394;-55
2021/09/18 14:37:03;;;;;;;;;;;34.90;70.10;;;;;;5003209;28;19945;-55
2021/09/18 14:39:43;;;;;;;;;;;34.10;71.00;;;;;;5107769;27;19997;-53
2021/09/18 14:42:21;;;;;;;;;;;33.40;72.40;;;;;;5106666;27;20006;-56
2021/09/18 14:45:00;;;;;;;;;;;32.70;73.90;;;;;;5106791;27;19977;-53
2021/09/18 14:47:38;;;;;;;;;;;32.70;74.20;;;;;;5067089;28;20417;-51
2021/09/18 14:50:18;;;;;;;;;;;32.60;73.70;;;;;;5127960;27;19964;-55
2021/09/18 14:52:57;;;;;;;;;;;32.70;73.50;;;;;;5108095;27;19948;-72
2021/09/18 14:55:36;;;;;;;;;;;32.60;73.60;;;;;;5107188;27;19944;-55
2021/09/18 14:58:14;;;;;;;;;;;32.60;73.70;;;;;;5003094;28;19946;-53
2021/09/18 15:00:52;;;;;;;;;;;32.30;74.00;;;;;;5113337;27;19955;-52
2021/09/18 15:03:30;;;;;;;;;;;31.90;74.20;;;;;;5002021;28;19995;-52
2021/09/18 15:06:08;;;;;;;;;;;31.50;74.90;;;;;;5003893;28;19994;-52
2021/09/18 15:08:47;;;;;;;;;;;31.50;75.20;;;;;;5065781;28;19952;-52
2021/09/18 15:11:25;;;;;;;;;;;31.50;75.30;;;;;;5107023;27;19951;-53
2021/09/18 15:14:03;;;;;;;;;;;31.50;75.00;;;;;;5107826;27;19948;-54
2021/09/18 15:16:41;;;;;;;;;;;31.60;75.00;;;;;;5003096;28;19961;-52
2021/09/18 15:19:19;;;;;;;;;;;31.60;75.00;;;;;;5128107;27;19947;-52
2021/09/18 15:21:58;;;;;;;;;;;31.30;75.60;;;;;;5126995;27;20008;-52
2021/09/18 15:24:37;;;;;;;;;;;31.00;75.90;;;;;;5127317;27;20395;-52
2021/09/18 15:27:15;;;;;;;;;;;30.50;76.50;;;;;;5106843;27;19984;-52
2021/09/18 15:29:54;;;;;;;;;;;29.90;77.40;;;;;;5126891;27;20015;-53
2021/09/18 15:32:32;;;;;;;;;;;29.70;78.20;;;;;;5107567;27;19955;-55
2021/09/18 15:35:12;;;;;;;;;;;29.50;78.90;;;;;;5106691;27;19996;-55
2021/09/18 15:37:50;;;;;;;;;;;29.30;79.70;;;;;;5148587;27;20461;-55
2021/09/18 15:40:29;;;;;;;;;;;29.20;79.70;;;;;;5066218;28;20358;-55
2021/09/18 15:43:06;;;;;;;;;;;29.10;80.10;;;;;;5106309;27;19992;-54
2021/09/18 15:45:45;;;;;;;;;;;29.10;80.30;;;;;;5107618;27;19947;-52
2021/09/18 15:48:23;;;;;;;;;;;29.00;80.20;;;;;;5127205;27;19992;-54
2021/09/18 15:51:01;;;;;;;;;;;28.90;81.20;;;;;;5107535;27;19943;-54
2021/09/18 15:53:40;;;;;;;;;;;28.90;80.90;;;;;;5065969;28;19948;-51
2021/09/18 15:56:17;;;;;;;;;;;28.90;80.80;;;;;;5066497;28;19956;-58
2021/09/18 15:58:56;;;;;;;;;;;28.90;81.00;;;;;;5106782;27;19989;-52
2021/09/18 16:01:34;;;;;;;;;;;28.50;81.60;;;;;;5126823;27;20000;-53
2021/09/18 16:04:12;;;;;;;;;;;28.40;81.70;;;;;;5087008;28;20012;-56
2021/09/18 16:06:50;;;;;;;;;;;28.30;82.00;;;;;;5126946;27;20012;-56
2021/09/18 16:09:28;;;;;;;;;;;28.10;82.20;;;;;;5107020;27;19952;-55
2021/09/18 16:12:07;;;;;;;;;;;28.00;82.60;;;;;;5107159;27;20377;-54
2021/09/18 16:14:45;;;;;;;;;;;27.70;83.00;;;;;;5106591;27;20390;-53
2021/09/18 16:17:23;;;;;;;;;;;27.50;83.30;;;;;;5107724;27;19936;-53
2021/09/18 16:20:01;;;;;;;;;;;27.40;83.90;;;;;;5106428;27;19944;-53
2021/09/18 16:22:40;;;;;;;;;;;27.10;84.30;;;;;;5127488;27;19996;-54
2021/09/18 16:25:18;;;;;;;;;;;26.90;84.50;;;;;;5003179;28;19986;-53
2021/09/18 16:27:56;;;;;;;;;;;26.70;84.80;;;;;;5160114;27;20000;-54
2021/09/18 16:30:34;;;;;;;;;;;26.60;85.20;;;;;;5107690;27;20004;-52
2021/09/18 16:33:12;;;;;;;;;;;26.40;85.40;;;;;;5065950;28;19952;-54
2021/09/18 16:35:50;;;;;;;;;;;26.30;86.00;;;;;;5107786;27;19947;-51
2021/09/18 16:38:29;;;;;;;;;;;26.10;86.40;;;;;;5106722;27;19952;-52
2021/09/18 16:41:07;;;;;;;;;;;26.10;86.90;;;;;;5127340;27;19951;-54
2021/09/18 16:43:45;;;;;;;;;;;26.00;87.20;;;;;;5107268;27;20017;-57
2021/09/18 16:46:23;;;;;;;;;;;25.90;87.30;;;;;;5106856;27;20404;-52
2021/09/18 16:49:01;;;;;;;;;;;25.80;87.80;;;;;;5128334;27;20459;-55
2021/09/18 16:51:40;;;;;;;;;;;25.70;88.00;;;;;;5106838;27;19993;-51
2021/09/18 16:54:18;;;;;;;;;;;25.60;88.20;;;;;;5107416;27;20036;-51
2021/09/18 16:56:56;;;;;;;;;;;25.50;88.40;;;;;;5066669;28;19945;-53
2021/09/18 16:59:34;;;;;;;;;;;25.20;88.80;;;;;;5106323;27;19948;-53
2021/09/18 17:02:12;;;;;;;;;;;25.10;89.40;;;;;;5107504;27;19989;-52